Relevés horaires Kleine Brogel (Belgique)


Relevés horaires à Kleine Brogel - Mercredi 10 Avr. 2024
Heure UTC1 Température [°C] Vent [km/h] Hum. [%] Pres.4 [hPa] Visi. [Km] Nébu. [octa] Préc.5 [mm] Cond.
2m. Res. Ros. Dir.2 Vit. Moy. Raf.3
23:00 9.8 9.4 3.3 SSO 5.6 -- 9.3 64 1030.2(0.0/3h) 20 -- -- --
22:00 9.6 9.6 3.2 SSO 3.7 -- 7.4 64 1030.2(0.2/3h) 20 -- -- --
21:00 10.1 10.1 2.9 SSO 3.7 -- 7.4 61 1030(0.2/3h) 20 -- -- --
20:00 10.3 10.3 2.4 NNO 1.9 -- 5.6 58 1030.2(0.8/3h) 20 -- -- --
19:00 11.0 11.0 1.8 NNO 1.9 -- 7.4 53 1030(0.5/3h) 20 -- -- --
18:00 13.0 13 1.4 SSO 5.6 -- 16.7 45 1029.9(0.4/3h) 20 -- -- --
17:00 14.1 13.9 0.9 SO 7.4 -- 14.8 41 1029.2(-0.1/3h) 20 -- -- --
16:00 15.0 15 0.3 SSO 7.4 -- 14.8 37 1029.4(0.0/3h) 20 -- -- --
15:00 15.5 15.5 1.4 SSO 7.4 -- 16.7 38 1029.4(0.0/3h) 20 -- -- --
14:00 15.5 15.5 1.7 SO 7.4 -- 14.8 39 1029.4(0.2/3h) 20 3/8 -- --
13:00 14.8 14.7 1.0 SSO 7.4 -- 16.7 39 1029.4(0.4/3h) 20 1/8 -- --
12:00 13.9 13.9 1.2 O 5.6 -- 14.8 42 1029.4(0.7/3h) 20 2/8 -- --
11:00 13.6 13 2.1 OSO 9.3 -- 14.8 46 1029.2(1.2/3h) 20 2/8 -- --
10:00 12.0 11.1 2.7 OSO 9.3 -- 14.8 53 1029(1.5/3h) 20 2/8 -- --
09:00 11.7 11.1 4.4 OSO 7.4 -- 13.0 61 1028.7(2.0/3h) 20 1/8 -- --
08:00 10.5 9.7 5.3 SO 7.4 -- 9.3 70 1028(2.7/3h) 20 1/8 -- --
07:00 7.8 7.1 5.0 SO 5.6 -- 9.3 82 1027.5(3.0/3h) 20 7/8 -- --
06:00 6.9 6.9 4.5 SO 3.7 -- 11.1 85 1026.7(2.9/3h) 20 7/8 0.1/12h
--
05:00 6.4 6.4 4.4 SO 3.7 -- 7.4 87 1025.5(2.7/3h) 20 5/8 -- --
04:00 7.0 7.0 4.8 OSO 3.7 -- 9.3 86 1024.5(2.3/3h) 19 -- -- --
03:00 7.0 5.6 4.6 SO 7.4 -- 11.1 85 1023.7(2.1/3h) 19 -- -- --
02:00 6.9 5.5 4.2 SO 7.4 -- 11.1 83 1022.7(1.8/3h) 20 -- -- --
01:00 7.2 5.9 4.2 SO 7.4 -- 11.1 81 1022.1(2.1/3h) 19 -- -- --
00:00 7.8 6.1 4.4 SO 9.3 -- 20.4 79 1021.5(2.4/3h) 20 -- 0.1/6h
NA

1 Coordinated Universal Time. Actuellement il est 01:00 locale et 23:00 UTC.

2 Le vent souffle depuis la direction indiquée vers la direction oposée.

3 Les rafales max. sont disponible 40 min après l'heure du relevé.

4 Pour les stations d'altitude (plus de 600m) le géopotentiel du niveau le plus proche de la pression obligatoire est indiqué.

5 Les stations disposant d'un diffuseur peuvent indiquer "trace". Cela signifie que des précipitations ont touchés le sol mais que la quantité est inférieure à 0.1 mm.

Récapitulatif de la journée
Température [°C] Vent [km/h] Ensoleillement4 [h] Precipitations totale5 [mm] Pression [Hpa]
Min1 Max.2 Moy.3 Max. Min Max.
6.3 16.0 0 20.4 0 h 0 min 0 1021.5 1030.2

1 Température minimale relevée entre 18:00 UTC la veille et 18:00 UTC le jour donné.

2 Température maximale relevée entre 06:00 UTC le jour donné et 06:00 UTC le lendemain.

3 Vent moyen de la journée basé sur les relevés horaires.

4 Ensoleillement en heures relevé entre 06:00 UTC la veille et 06:00 UTC le jour donné.

5 Précipitations totales tombées entre 06:00 UTC la jour donné et 06:00 UTC le lendemain.

Graphiques horaires